sensor_id;sensor_type;location;lat;lon;timestamp;temperature;humidity
18444;DHT22;9350;53.176;8.194;2024-03-08T00:01:32;3.30;99.90
18444;DHT22;9350;53.176;8.194;2024-03-08T00:04:00;3.20;99.90
18444;DHT22;9350;53.176;8.194;2024-03-08T00:06:27;3.20;99.90
18444;DHT22;9350;53.176;8.194;2024-03-08T00:08:54;3.20;99.90
18444;DHT22;9350;53.176;8.194;2024-03-08T00:11:21;3.30;99.90
18444;DHT22;9350;53.176;8.194;2024-03-08T00:13:51;3.40;99.90
18444;DHT22;9350;53.176;8.194;2024-03-08T00:16:18;3.30;99.90
18444;DHT22;9350;53.176;8.194;2024-03-08T00:18:45;3.40;99.90
18444;DHT22;9350;53.176;8.194;2024-03-08T00:21:15;3.40;99.90
18444;DHT22;9350;53.176;8.194;2024-03-08T00:23:41;3.40;99.90
18444;DHT22;9350;53.176;8.194;2024-03-08T00:26:08;3.40;99.90
18444;DHT22;9350;53.176;8.194;2024-03-08T00:28:35;3.30;99.90
18444;DHT22;9350;53.176;8.194;2024-03-08T00:31:02;3.30;99.90
18444;DHT22;9350;53.176;8.194;2024-03-08T00:33:29;3.30;99.90
18444;DHT22;9350;53.176;8.194;2024-03-08T00:35:56;3.20;99.90
18444;DHT22;9350;53.176;8.194;2024-03-08T00:38:25;3.30;99.90
18444;DHT22;9350;53.176;8.194;2024-03-08T00:40:51;3.30;99.90
18444;DHT22;9350;53.176;8.194;2024-03-08T00:43:18;3.30;99.90
18444;DHT22;9350;53.176;8.194;2024-03-08T00:45:45;3.40;99.90
18444;DHT22;9350;53.176;8.194;2024-03-08T00:48:12;3.40;99.90
18444;DHT22;9350;53.176;8.194;2024-03-08T00:50:39;3.40;99.90
18444;DHT22;9350;53.176;8.194;2024-03-08T00:53:06;3.60;99.90
18444;DHT22;9350;53.176;8.194;2024-03-08T00:55:34;3.30;99.90
18444;DHT22;9350;53.176;8.194;2024-03-08T00:58:01;3.40;99.90
18444;DHT22;9350;53.176;8.194;2024-03-08T01:00:28;3.40;99.90
18444;DHT22;9350;53.176;8.194;2024-03-08T01:02:55;3.40;99.90
18444;DHT22;9350;53.176;8.194;2024-03-08T01:05:22;3.50;99.90
18444;DHT22;9350;53.176;8.194;2024-03-08T01:07:50;3.50;99.90
18444;DHT22;9350;53.176;8.194;2024-03-08T01:10:17;3.50;99.90
18444;DHT22;9350;53.176;8.194;2024-03-08T01:12:45;3.40;99.90
18444;DHT22;9350;53.176;8.194;2024-03-08T01:15:12;3.60;99.90
18444;DHT22;9350;53.176;8.194;2024-03-08T01:17:38;3.50;99.90
18444;DHT22;9350;53.176;8.194;2024-03-08T01:20:07;3.40;99.90
18444;DHT22;9350;53.176;8.194;2024-03-08T01:22:36;3.40;99.90
18444;DHT22;9350;53.176;8.194;2024-03-08T01:25:03;3.40;99.90
18444;DHT22;9350;53.176;8.194;2024-03-08T01:27:31;3.40;99.90
18444;DHT22;9350;53.176;8.194;2024-03-08T01:29:59;3.40;99.90
18444;DHT22;9350;53.176;8.194;2024-03-08T01:32:26;3.40;99.90
18444;DHT22;9350;53.176;8.194;2024-03-08T01:34:53;3.30;99.90
18444;DHT22;9350;53.176;8.194;2024-03-08T01:37:19;3.30;99.90
18444;DHT22;9350;53.176;8.194;2024-03-08T01:39:46;3.40;99.90
18444;DHT22;9350;53.176;8.194;2024-03-08T01:42:13;3.30;99.90
18444;DHT22;9350;53.176;8.194;2024-03-08T01:44:43;3.30;99.90
18444;DHT22;9350;53.176;8.194;2024-03-08T01:47:11;3.30;99.90
18444;DHT22;9350;53.176;8.194;2024-03-08T01:49:38;3.30;99.90
18444;DHT22;9350;53.176;8.194;2024-03-08T01:52:05;3.30;99.90
18444;DHT22;9350;53.176;8.194;2024-03-08T01:54:32;3.40;99.90
18444;DHT22;9350;53.176;8.194;2024-03-08T01:57:00;3.40;99.90
18444;DHT22;9350;53.176;8.194;2024-03-08T01:59:27;3.40;99.90
18444;DHT22;9350;53.176;8.194;2024-03-08T02:01:55;3.40;99.90
18444;DHT22;9350;53.176;8.194;2024-03-08T02:04:25;3.40;99.90
18444;DHT22;9350;53.176;8.194;2024-03-08T02:06:52;3.40;99.90
18444;DHT22;9350;53.176;8.194;2024-03-08T02:09:19;3.40;99.90
18444;DHT22;9350;53.176;8.194;2024-03-08T02:11:46;3.30;99.90
18444;DHT22;9350;53.176;8.194;2024-03-08T02:14:13;3.30;99.90
18444;DHT22;9350;53.176;8.194;2024-03-08T02:16:39;3.30;99.90
18444;DHT22;9350;53.176;8.194;2024-03-08T02:19:06;3.40;99.90
18444;DHT22;9350;53.176;8.194;2024-03-08T02:21:36;3.20;99.90
18444;DHT22;9350;53.176;8.194;2024-03-08T02:24:04;3.10;99.90
18444;DHT22;9350;53.176;8.194;2024-03-08T02:26:31;3.10;99.90
18444;DHT22;9350;53.176;8.194;2024-03-08T02:28:58;3.10;99.90
18444;DHT22;9350;53.176;8.194;2024-03-08T02:31:24;3.10;99.90
18444;DHT22;9350;53.176;8.194;2024-03-08T02:33:51;3.10;99.90
18444;DHT22;9350;53.176;8.194;2024-03-08T02:36:18;3.20;99.90
18444;DHT22;9350;53.176;8.194;2024-03-08T02:38:46;3.20;99.90
18444;DHT22;9350;53.176;8.194;2024-03-08T02:41:13;3.20;99.90
18444;DHT22;9350;53.176;8.194;2024-03-08T02:43:40;3.20;99.90
18444;DHT22;9350;53.176;8.194;2024-03-08T02:46:06;3.10;99.90
18444;DHT22;9350;53.176;8.194;2024-03-08T02:48:33;3.20;99.90
18444;DHT22;9350;53.176;8.194;2024-03-08T02:51:00;3.20;99.90
18444;DHT22;9350;53.176;8.194;2024-03-08T02:53:27;3.10;99.90
18444;DHT22;9350;53.176;8.194;2024-03-08T02:55:56;3.20;99.90
18444;DHT22;9350;53.176;8.194;2024-03-08T02:58:22;3.10;99.90
18444;DHT22;9350;53.176;8.194;2024-03-08T03:00:49;3.10;99.90
18444;DHT22;9350;53.176;8.194;2024-03-08T03:03:16;3.10;99.90
18444;DHT22;9350;53.176;8.194;2024-03-08T03:05:43;3.10;99.90
18444;DHT22;9350;53.176;8.194;2024-03-08T03:08:10;3.10;99.90
18444;DHT22;9350;53.176;8.194;2024-03-08T03:10:37;3.20;99.90
18444;DHT22;9350;53.176;8.194;2024-03-08T03:13:05;3.10;99.90
18444;DHT22;9350;53.176;8.194;2024-03-08T03:15:32;3.10;99.90
18444;DHT22;9350;53.176;8.194;2024-03-08T03:18:00;3.10;99.90
18444;DHT22;9350;53.176;8.194;2024-03-08T03:20:27;3.10;99.90
18444;DHT22;9350;53.176;8.194;2024-03-08T03:22:58;3.20;99.90
18444;DHT22;9350;53.176;8.194;2024-03-08T03:25:27;3.00;99.90
18444;DHT22;9350;53.176;8.194;2024-03-08T03:27:59;2.90;99.90
18444;DHT22;9350;53.176;8.194;2024-03-08T03:30:28;2.80;99.90
18444;DHT22;9350;53.176;8.194;2024-03-08T03:32:59;2.80;99.90
18444;DHT22;9350;53.176;8.194;2024-03-08T03:35:27;2.80;99.90
18444;DHT22;9350;53.176;8.194;2024-03-08T03:37:54;2.80;99.90
18444;DHT22;9350;53.176;8.194;2024-03-08T03:40:28;2.80;99.90
18444;DHT22;9350;53.176;8.194;2024-03-08T03:42:55;2.80;99.90
18444;DHT22;9350;53.176;8.194;2024-03-08T03:45:22;2.70;99.90
18444;DHT22;9350;53.176;8.194;2024-03-08T03:47:50;2.80;99.90
18444;DHT22;9350;53.176;8.194;2024-03-08T03:50:17;2.80;99.90
18444;DHT22;9350;53.176;8.194;2024-03-08T03:52:45;2.80;99.90
18444;DHT22;9350;53.176;8.194;2024-03-08T03:55:12;2.80;99.90
18444;DHT22;9350;53.176;8.194;2024-03-08T03:57:39;2.80;99.90
18444;DHT22;9350;53.176;8.194;2024-03-08T04:00:07;2.80;99.90
18444;DHT22;9350;53.176;8.194;2024-03-08T04:02:36;2.80;99.90
18444;DHT22;9350;53.176;8.194;2024-03-08T04:05:06;2.80;99.90
18444;DHT22;9350;53.176;8.194;2024-03-08T04:07:33;2.80;99.90
18444;DHT22;9350;53.176;8.194;2024-03-08T04:10:00;2.80;99.90
18444;DHT22;9350;53.176;8.194;2024-03-08T04:12:27;2.80;99.90
18444;DHT22;9350;53.176;8.194;2024-03-08T04:14:55;2.70;99.90
18444;DHT22;9350;53.176;8.194;2024-03-08T04:17:22;2.70;99.90
18444;DHT22;9350;53.176;8.194;2024-03-08T04:19:49;2.70;99.90
18444;DHT22;9350;53.176;8.194;2024-03-08T04:22:17;2.70;99.90
18444;DHT22;9350;53.176;8.194;2024-03-08T04:24:44;2.70;99.90
18444;DHT22;9350;53.176;8.194;2024-03-08T04:27:12;2.70;99.90
18444;DHT22;9350;53.176;8.194;2024-03-08T04:29:39;2.70;99.90
18444;DHT22;9350;53.176;8.194;2024-03-08T04:32:07;2.70;99.90
18444;DHT22;9350;53.176;8.194;2024-03-08T04:34:34;2.60;99.90
18444;DHT22;9350;53.176;8.194;2024-03-08T04:37:01;2.60;99.90
18444;DHT22;9350;53.176;8.194;2024-03-08T04:39:31;2.70;99.90
18444;DHT22;9350;53.176;8.194;2024-03-08T04:42:01;2.50;99.90
18444;DHT22;9350;53.176;8.194;2024-03-08T04:44:30;2.60;99.90
18444;DHT22;9350;53.176;8.194;2024-03-08T04:46:57;2.50;99.90
18444;DHT22;9350;53.176;8.194;2024-03-08T04:49:24;2.50;99.90
18444;DHT22;9350;53.176;8.194;2024-03-08T04:51:50;2.40;99.90
18444;DHT22;9350;53.176;8.194;2024-03-08T04:54:17;2.60;99.90
18444;DHT22;9350;53.176;8.194;2024-03-08T04:56:45;2.60;99.90
18444;DHT22;9350;53.176;8.194;2024-03-08T04:59:12;2.60;99.90
18444;DHT22;9350;53.176;8.194;2024-03-08T05:01:39;2.70;99.90
18444;DHT22;9350;53.176;8.194;2024-03-08T05:04:06;2.60;99.90
18444;DHT22;9350;53.176;8.194;2024-03-08T05:06:33;2.60;99.90
18444;DHT22;9350;53.176;8.194;2024-03-08T05:08:59;2.60;99.90
18444;DHT22;9350;53.176;8.194;2024-03-08T05:11:26;2.60;99.90
18444;DHT22;9350;53.176;8.194;2024-03-08T05:13:55;2.50;99.90
18444;DHT22;9350;53.176;8.194;2024-03-08T05:16:24;2.50;99.90
18444;DHT22;9350;53.176;8.194;2024-03-08T05:18:51;2.50;99.90
18444;DHT22;9350;53.176;8.194;2024-03-08T05:21:18;2.50;99.90
18444;DHT22;9350;53.176;8.194;2024-03-08T05:23:45;2.50;99.90
18444;DHT22;9350;53.176;8.194;2024-03-08T05:26:13;2.50;99.90
18444;DHT22;9350;53.176;8.194;2024-03-08T05:28:40;2.50;99.90
18444;DHT22;9350;53.176;8.194;2024-03-08T05:31:08;2.60;99.90
18444;DHT22;9350;53.176;8.194;2024-03-08T05:33:35;2.60;99.90
18444;DHT22;9350;53.176;8.194;2024-03-08T05:36:02;2.60;99.90
18444;DHT22;9350;53.176;8.194;2024-03-08T05:38:29;2.50;99.90
18444;DHT22;9350;53.176;8.194;2024-03-08T05:40:56;2.50;99.90
18444;DHT22;9350;53.176;8.194;2024-03-08T05:43:22;2.50;99.90
18444;DHT22;9350;53.176;8.194;2024-03-08T05:45:50;2.40;99.90
18444;DHT22;9350;53.176;8.194;2024-03-08T05:48:18;2.40;99.90
18444;DHT22;9350;53.176;8.194;2024-03-08T05:50:45;2.30;99.90
18444;DHT22;9350;53.176;8.194;2024-03-08T05:53:12;2.40;99.90
18444;DHT22;9350;53.176;8.194;2024-03-08T05:55:39;2.40;99.90
18444;DHT22;9350;53.176;8.194;2024-03-08T05:58:06;2.40;99.90
18444;DHT22;9350;53.176;8.194;2024-03-08T06:00:33;2.40;99.90
18444;DHT22;9350;53.176;8.194;2024-03-08T06:03:02;2.50;99.90
18444;DHT22;9350;53.176;8.194;2024-03-08T06:05:30;2.40;99.90
18444;DHT22;9350;53.176;8.194;2024-03-08T06:07:57;2.40;99.90
18444;DHT22;9350;53.176;8.194;2024-03-08T06:10:24;2.40;99.90
18444;DHT22;9350;53.176;8.194;2024-03-08T06:12:50;2.40;99.90
18444;DHT22;9350;53.176;8.194;2024-03-08T06:15:17;2.40;99.90
18444;DHT22;9350;53.176;8.194;2024-03-08T06:17:46;2.30;99.90
18444;DHT22;9350;53.176;8.194;2024-03-08T06:20:13;2.40;99.90
18444;DHT22;9350;53.176;8.194;2024-03-08T06:22:41;2.30;99.90
18444;DHT22;9350;53.176;8.194;2024-03-08T06:25:10;2.30;99.90
18444;DHT22;9350;53.176;8.194;2024-03-08T06:27:39;2.40;99.90
18444;DHT22;9350;53.176;8.194;2024-03-08T06:30:08;2.60;99.90
18444;DHT22;9350;53.176;8.194;2024-03-08T06:32:36;2.40;99.90
18444;DHT22;9350;53.176;8.194;2024-03-08T06:35:03;2.50;99.90
18444;DHT22;9350;53.176;8.194;2024-03-08T06:37:31;2.50;99.90
18444;DHT22;9350;53.176;8.194;2024-03-08T06:40:00;2.50;99.90
18444;DHT22;9350;53.176;8.194;2024-03-08T06:42:27;2.50;99.90
18444;DHT22;9350;53.176;8.194;2024-03-08T06:44:54;2.50;99.90
18444;DHT22;9350;53.176;8.194;2024-03-08T06:47:29;2.50;99.90
18444;DHT22;9350;53.176;8.194;2024-03-08T06:49:56;2.50;99.90
18444;DHT22;9350;53.176;8.194;2024-03-08T06:52:23;2.50;99.90
18444;DHT22;9350;53.176;8.194;2024-03-08T06:54:50;2.60;99.90
18444;DHT22;9350;53.176;8.194;2024-03-08T06:57:19;2.60;99.90
18444;DHT22;9350;53.176;8.194;2024-03-08T06:59:47;2.70;99.90
18444;DHT22;9350;53.176;8.194;2024-03-08T07:02:14;2.80;99.90
18444;DHT22;9350;53.176;8.194;2024-03-08T07:04:41;2.80;99.90
18444;DHT22;9350;53.176;8.194;2024-03-08T07:07:08;2.70;99.90
18444;DHT22;9350;53.176;8.194;2024-03-08T07:09:35;2.70;99.90
18444;DHT22;9350;53.176;8.194;2024-03-08T07:12:02;2.70;99.90
18444;DHT22;9350;53.176;8.194;2024-03-08T07:14:30;2.80;99.90
18444;DHT22;9350;53.176;8.194;2024-03-08T07:16:57;2.80;99.90
18444;DHT22;9350;53.176;8.194;2024-03-08T07:19:24;2.70;99.90
18444;DHT22;9350;53.176;8.194;2024-03-08T07:21:51;2.80;99.90
18444;DHT22;9350;53.176;8.194;2024-03-08T07:24:18;2.80;99.90
18444;DHT22;9350;53.176;8.194;2024-03-08T07:27:05;2.90;99.90
18444;DHT22;9350;53.176;8.194;2024-03-08T07:29:34;2.80;99.90
18444;DHT22;9350;53.176;8.194;2024-03-08T07:32:00;2.90;99.90
18444;DHT22;9350;53.176;8.194;2024-03-08T07:34:38;2.90;99.90
18444;DHT22;9350;53.176;8.194;2024-03-08T07:37:06;2.90;99.90
18444;DHT22;9350;53.176;8.194;2024-03-08T07:39:37;2.90;99.90
18444;DHT22;9350;53.176;8.194;2024-03-08T07:42:04;2.90;99.90
18444;DHT22;9350;53.176;8.194;2024-03-08T07:44:31;3.00;99.90
18444;DHT22;9350;53.176;8.194;2024-03-08T07:47:00;3.00;99.90
18444;DHT22;9350;53.176;8.194;2024-03-08T07:49:26;3.00;99.90
18444;DHT22;9350;53.176;8.194;2024-03-08T07:51:53;3.00;99.90
18444;DHT22;9350;53.176;8.194;2024-03-08T07:54:20;3.00;99.90
18444;DHT22;9350;53.176;8.194;2024-03-08T07:56:47;3.00;99.90
18444;DHT22;9350;53.176;8.194;2024-03-08T07:59:14;3.00;99.90
18444;DHT22;9350;53.176;8.194;2024-03-08T08:01:40;3.10;99.90
18444;DHT22;9350;53.176;8.194;2024-03-08T08:04:08;3.20;99.90
18444;DHT22;9350;53.176;8.194;2024-03-08T08:06:38;3.20;99.90
18444;DHT22;9350;53.176;8.194;2024-03-08T08:09:06;3.20;99.90
18444;DHT22;9350;53.176;8.194;2024-03-08T08:11:39;3.20;99.90
18444;DHT22;9350;53.176;8.194;2024-03-08T08:14:06;3.10;99.90
18444;DHT22;9350;53.176;8.194;2024-03-08T08:16:35;3.20;99.90
18444;DHT22;9350;53.176;8.194;2024-03-08T08:19:02;3.20;99.90
18444;DHT22;9350;53.176;8.194;2024-03-08T08:21:32;3.20;99.90
18444;DHT22;9350;53.176;8.194;2024-03-08T08:23:58;3.20;99.90
18444;DHT22;9350;53.176;8.194;2024-03-08T08:26:25;3.30;99.90
18444;DHT22;9350;53.176;8.194;2024-03-08T08:28:52;3.30;99.90
18444;DHT22;9350;53.176;8.194;2024-03-08T08:31:20;3.40;99.90
18444;DHT22;9350;53.176;8.194;2024-03-08T08:33:46;3.40;99.90
18444;DHT22;9350;53.176;8.194;2024-03-08T08:36:14;3.50;99.90
18444;DHT22;9350;53.176;8.194;2024-03-08T08:38:42;3.40;99.90
18444;DHT22;9350;53.176;8.194;2024-03-08T08:41:09;3.50;99.90
18444;DHT22;9350;53.176;8.194;2024-03-08T08:43:36;3.60;99.90
18444;DHT22;9350;53.176;8.194;2024-03-08T08:46:05;3.50;99.90
18444;DHT22;9350;53.176;8.194;2024-03-08T08:48:32;3.60;99.90
18444;DHT22;9350;53.176;8.194;2024-03-08T08:50:58;3.60;99.90
18444;DHT22;9350;53.176;8.194;2024-03-08T08:53:25;3.70;99.90
18444;DHT22;9350;53.176;8.194;2024-03-08T08:55:54;3.70;99.90
18444;DHT22;9350;53.176;8.194;2024-03-08T08:58:22;3.80;99.90
18444;DHT22;9350;53.176;8.194;2024-03-08T09:00:49;3.80;99.90
18444;DHT22;9350;53.176;8.194;2024-03-08T09:03:17;3.90;99.90
18444;DHT22;9350;53.176;8.194;2024-03-08T09:05:44;3.90;99.90
18444;DHT22;9350;53.176;8.194;2024-03-08T09:08:11;3.90;99.90
18444;DHT22;9350;53.176;8.194;2024-03-08T09:10:39;4.00;99.90
18444;DHT22;9350;53.176;8.194;2024-03-08T09:13:07;4.10;99.90
18444;DHT22;9350;53.176;8.194;2024-03-08T09:15:35;4.10;99.90
18444;DHT22;9350;53.176;8.194;2024-03-08T09:18:04;4.10;99.90
18444;DHT22;9350;53.176;8.194;2024-03-08T09:20:31;4.10;99.90
18444;DHT22;9350;53.176;8.194;2024-03-08T09:22:58;4.10;99.90
18444;DHT22;9350;53.176;8.194;2024-03-08T09:25:25;4.20;99.90
18444;DHT22;9350;53.176;8.194;2024-03-08T09:27:52;4.20;99.90
18444;DHT22;9350;53.176;8.194;2024-03-08T09:30:21;4.30;99.90
18444;DHT22;9350;53.176;8.194;2024-03-08T09:32:48;4.30;99.90
18444;DHT22;9350;53.176;8.194;2024-03-08T09:35:16;4.40;99.90
18444;DHT22;9350;53.176;8.194;2024-03-08T09:37:43;4.40;99.90
18444;DHT22;9350;53.176;8.194;2024-03-08T09:40:12;4.50;99.90
18444;DHT22;9350;53.176;8.194;2024-03-08T09:42:41;4.50;99.90
18444;DHT22;9350;53.176;8.194;2024-03-08T09:45:09;4.50;99.90
18444;DHT22;9350;53.176;8.194;2024-03-08T09:47:39;4.50;99.90
18444;DHT22;9350;53.176;8.194;2024-03-08T09:50:07;4.60;99.90
18444;DHT22;9350;53.176;8.194;2024-03-08T09:52:35;4.60;99.90
18444;DHT22;9350;53.176;8.194;2024-03-08T09:55:04;4.70;99.90
18444;DHT22;9350;53.176;8.194;2024-03-08T09:57:32;4.70;99.90
18444;DHT22;9350;53.176;8.194;2024-03-08T09:59:59;4.70;99.90
18444;DHT22;9350;53.176;8.194;2024-03-08T10:02:26;4.80;99.90
18444;DHT22;9350;53.176;8.194;2024-03-08T10:04:54;4.90;99.90
18444;DHT22;9350;53.176;8.194;2024-03-08T10:07:21;4.90;99.90
18444;DHT22;9350;53.176;8.194;2024-03-08T10:09:47;5.00;99.90
18444;DHT22;9350;53.176;8.194;2024-03-08T10:12:16;5.00;99.90
18444;DHT22;9350;53.176;8.194;2024-03-08T10:14:43;5.00;99.90
18444;DHT22;9350;53.176;8.194;2024-03-08T10:17:09;5.10;99.90
18444;DHT22;9350;53.176;8.194;2024-03-08T10:19:36;5.10;99.90
18444;DHT22;9350;53.176;8.194;2024-03-08T10:22:05;5.10;99.90
18444;DHT22;9350;53.176;8.194;2024-03-08T10:24:33;5.10;99.90
18444;DHT22;9350;53.176;8.194;2024-03-08T10:27:00;5.10;99.90
18444;DHT22;9350;53.176;8.194;2024-03-08T10:29:30;5.30;99.90
18444;DHT22;9350;53.176;8.194;2024-03-08T10:31:57;5.30;99.90
18444;DHT22;9350;53.176;8.194;2024-03-08T10:34:24;5.30;99.90
18444;DHT22;9350;53.176;8.194;2024-03-08T10:36:51;5.30;99.90
18444;DHT22;9350;53.176;8.194;2024-03-08T10:39:23;5.40;99.90
18444;DHT22;9350;53.176;8.194;2024-03-08T10:41:55;5.50;99.90
18444;DHT22;9350;53.176;8.194;2024-03-08T10:44:36;5.40;99.90
18444;DHT22;9350;53.176;8.194;2024-03-08T10:47:15;5.50;99.90
18444;DHT22;9350;53.176;8.194;2024-03-08T10:49:54;5.60;99.90
18444;DHT22;9350;53.176;8.194;2024-03-08T10:52:21;5.60;99.90
18444;DHT22;9350;53.176;8.194;2024-03-08T10:54:52;5.70;99.90
18444;DHT22;9350;53.176;8.194;2024-03-08T10:57:22;5.70;99.90
18444;DHT22;9350;53.176;8.194;2024-03-08T10:59:49;5.80;99.90
18444;DHT22;9350;53.176;8.194;2024-03-08T11:02:17;5.80;99.90
18444;DHT22;9350;53.176;8.194;2024-03-08T11:04:50;5.90;99.90
18444;DHT22;9350;53.176;8.194;2024-03-08T11:07:17;6.00;99.90
18444;DHT22;9350;53.176;8.194;2024-03-08T11:09:47;5.90;99.90
18444;DHT22;9350;53.176;8.194;2024-03-08T11:12:23;6.00;99.90
18444;DHT22;9350;53.176;8.194;2024-03-08T11:14:52;6.10;99.90
18444;DHT22;9350;53.176;8.194;2024-03-08T11:17:39;6.20;99.90
18444;DHT22;9350;53.176;8.194;2024-03-08T11:20:10;6.10;99.90
18444;DHT22;9350;53.176;8.194;2024-03-08T11:22:41;6.10;99.90
18444;DHT22;9350;53.176;8.194;2024-03-08T11:25:31;6.10;99.90
18444;DHT22;9350;53.176;8.194;2024-03-08T11:28:09;6.20;99.90
18444;DHT22;9350;53.176;8.194;2024-03-08T11:30:42;6.30;99.90
18444;DHT22;9350;53.176;8.194;2024-03-08T11:33:11;6.30;99.90
18444;DHT22;9350;53.176;8.194;2024-03-08T11:35:39;6.30;99.90
18444;DHT22;9350;53.176;8.194;2024-03-08T11:38:08;6.40;99.90
18444;DHT22;9350;53.176;8.194;2024-03-08T11:40:35;6.40;99.90
18444;DHT22;9350;53.176;8.194;2024-03-08T11:43:03;6.30;99.90
18444;DHT22;9350;53.176;8.194;2024-03-08T11:45:34;6.50;99.90
18444;DHT22;9350;53.176;8.194;2024-03-08T11:48:02;6.50;99.90
18444;DHT22;9350;53.176;8.194;2024-03-08T11:50:30;6.50;99.90
18444;DHT22;9350;53.176;8.194;2024-03-08T11:53:01;6.60;99.90
18444;DHT22;9350;53.176;8.194;2024-03-08T11:55:29;6.70;99.90
18444;DHT22;9350;53.176;8.194;2024-03-08T11:58:01;6.70;99.90
18444;DHT22;9350;53.176;8.194;2024-03-08T12:00:28;6.80;99.90
18444;DHT22;9350;53.176;8.194;2024-03-08T12:03:06;6.70;99.90
18444;DHT22;9350;53.176;8.194;2024-03-08T12:05:35;6.70;99.90
18444;DHT22;9350;53.176;8.194;2024-03-08T12:08:04;6.70;99.90
18444;DHT22;9350;53.176;8.194;2024-03-08T12:10:32;6.70;99.90
18444;DHT22;9350;53.176;8.194;2024-03-08T12:13:00;6.80;99.90
18444;DHT22;9350;53.176;8.194;2024-03-08T12:15:29;6.90;99.90
18444;DHT22;9350;53.176;8.194;2024-03-08T12:17:58;6.90;99.90
18444;DHT22;9350;53.176;8.194;2024-03-08T12:20:28;7.00;99.90
18444;DHT22;9350;53.176;8.194;2024-03-08T12:22:56;7.00;99.90
18444;DHT22;9350;53.176;8.194;2024-03-08T12:25:26;7.00;99.90
18444;DHT22;9350;53.176;8.194;2024-03-08T12:27:54;7.00;99.90
18444;DHT22;9350;53.176;8.194;2024-03-08T12:30:23;7.00;99.90
18444;DHT22;9350;53.176;8.194;2024-03-08T12:32:54;7.00;99.90
18444;DHT22;9350;53.176;8.194;2024-03-08T12:35:22;7.10;99.90
18444;DHT22;9350;53.176;8.194;2024-03-08T12:37:53;7.10;99.90
18444;DHT22;9350;53.176;8.194;2024-03-08T12:40:25;7.10;99.90
18444;DHT22;9350;53.176;8.194;2024-03-08T12:42:53;7.10;99.90
18444;DHT22;9350;53.176;8.194;2024-03-08T12:45:20;7.10;99.90
18444;DHT22;9350;53.176;8.194;2024-03-08T12:47:50;7.20;99.90
18444;DHT22;9350;53.176;8.194;2024-03-08T12:50:18;7.10;99.90
18444;DHT22;9350;53.176;8.194;2024-03-08T12:52:45;7.20;99.90
18444;DHT22;9350;53.176;8.194;2024-03-08T12:55:14;7.30;99.90
18444;DHT22;9350;53.176;8.194;2024-03-08T12:57:42;7.20;99.90
18444;DHT22;9350;53.176;8.194;2024-03-08T13:00:09;7.30;99.90
18444;DHT22;9350;53.176;8.194;2024-03-08T13:02:39;7.40;99.90
18444;DHT22;9350;53.176;8.194;2024-03-08T13:05:08;7.20;99.90
18444;DHT22;9350;53.176;8.194;2024-03-08T13:07:36;7.30;99.90
18444;DHT22;9350;53.176;8.194;2024-03-08T13:10:04;7.30;99.90
18444;DHT22;9350;53.176;8.194;2024-03-08T13:12:33;7.30;99.90
18444;DHT22;9350;53.176;8.194;2024-03-08T13:15:03;7.40;99.90
18444;DHT22;9350;53.176;8.194;2024-03-08T13:17:31;7.30;99.90
18444;DHT22;9350;53.176;8.194;2024-03-08T13:19:58;7.40;99.90
18444;DHT22;9350;53.176;8.194;2024-03-08T13:22:25;7.40;99.90
18444;DHT22;9350;53.176;8.194;2024-03-08T13:24:53;7.40;99.90
18444;DHT22;9350;53.176;8.194;2024-03-08T13:27:20;7.50;99.90
18444;DHT22;9350;53.176;8.194;2024-03-08T13:29:52;7.50;99.90
18444;DHT22;9350;53.176;8.194;2024-03-08T13:32:18;7.50;99.90
18444;DHT22;9350;53.176;8.194;2024-03-08T13:34:47;7.60;99.90
18444;DHT22;9350;53.176;8.194;2024-03-08T13:37:16;7.50;99.90
18444;DHT22;9350;53.176;8.194;2024-03-08T13:39:43;7.50;99.90
18444;DHT22;9350;53.176;8.194;2024-03-08T13:42:11;7.50;99.90
18444;DHT22;9350;53.176;8.194;2024-03-08T13:44:39;7.40;99.90
18444;DHT22;9350;53.176;8.194;2024-03-08T13:47:08;7.50;99.90
18444;DHT22;9350;53.176;8.194;2024-03-08T13:49:37;7.50;99.90
18444;DHT22;9350;53.176;8.194;2024-03-08T13:52:04;7.50;99.90
18444;DHT22;9350;53.176;8.194;2024-03-08T13:54:33;7.50;99.90
18444;DHT22;9350;53.176;8.194;2024-03-08T13:57:01;7.50;99.90
18444;DHT22;9350;53.176;8.194;2024-03-08T13:59:29;7.60;99.90
18444;DHT22;9350;53.176;8.194;2024-03-08T14:01:58;7.60;99.90
18444;DHT22;9350;53.176;8.194;2024-03-08T14:04:28;7.60;99.90
18444;DHT22;9350;53.176;8.194;2024-03-08T14:06:54;7.60;99.90
18444;DHT22;9350;53.176;8.194;2024-03-08T14:09:30;7.60;99.90
18444;DHT22;9350;53.176;8.194;2024-03-08T14:11:57;7.60;99.90
18444;DHT22;9350;53.176;8.194;2024-03-08T14:14:24;7.60;99.90
18444;DHT22;9350;53.176;8.194;2024-03-08T14:16:51;7.60;99.90
18444;DHT22;9350;53.176;8.194;2024-03-08T14:19:20;7.70;99.90
18444;DHT22;9350;53.176;8.194;2024-03-08T14:21:48;7.70;99.90
18444;DHT22;9350;53.176;8.194;2024-03-08T14:24:16;7.70;99.90
18444;DHT22;9350;53.176;8.194;2024-03-08T14:26:44;7.70;99.90
18444;DHT22;9350;53.176;8.194;2024-03-08T14:29:12;7.60;99.90
18444;DHT22;9350;53.176;8.194;2024-03-08T14:31:38;7.70;99.90
18444;DHT22;9350;53.176;8.194;2024-03-08T14:34:07;7.70;99.90
18444;DHT22;9350;53.176;8.194;2024-03-08T14:36:34;7.70;99.90
18444;DHT22;9350;53.176;8.194;2024-03-08T14:39:02;7.70;99.90
18444;DHT22;9350;53.176;8.194;2024-03-08T14:41:29;7.70;99.90
18444;DHT22;9350;53.176;8.194;2024-03-08T14:43:56;7.70;99.90
18444;DHT22;9350;53.176;8.194;2024-03-08T14:46:23;7.70;99.90
18444;DHT22;9350;53.176;8.194;2024-03-08T14:48:50;7.70;99.90
18444;DHT22;9350;53.176;8.194;2024-03-08T14:51:18;7.70;99.90
18444;DHT22;9350;53.176;8.194;2024-03-08T14:53:59;7.70;99.90
18444;DHT22;9350;53.176;8.194;2024-03-08T14:56:39;7.60;99.90
18444;DHT22;9350;53.176;8.194;2024-03-08T14:59:08;7.80;99.90
18444;DHT22;9350;53.176;8.194;2024-03-08T15:01:35;7.80;99.90
18444;DHT22;9350;53.176;8.194;2024-03-08T15:04:05;7.80;99.90
18444;DHT22;9350;53.176;8.194;2024-03-08T15:06:35;7.80;99.90
18444;DHT22;9350;53.176;8.194;2024-03-08T15:09:03;7.90;99.90
18444;DHT22;9350;53.176;8.194;2024-03-08T15:11:36;7.80;99.90
18444;DHT22;9350;53.176;8.194;2024-03-08T15:14:06;7.70;99.90
18444;DHT22;9350;53.176;8.194;2024-03-08T15:16:36;7.90;99.90
18444;DHT22;9350;53.176;8.194;2024-03-08T15:19:02;7.80;99.90
18444;DHT22;9350;53.176;8.194;2024-03-08T15:21:31;7.90;99.90
18444;DHT22;9350;53.176;8.194;2024-03-08T15:23:58;7.80;99.90
18444;DHT22;9350;53.176;8.194;2024-03-08T15:26:25;7.90;99.90
18444;DHT22;9350;53.176;8.194;2024-03-08T15:28:53;7.80;99.90
18444;DHT22;9350;53.176;8.194;2024-03-08T15:31:22;7.80;99.90
18444;DHT22;9350;53.176;8.194;2024-03-08T15:33:50;7.80;99.90
18444;DHT22;9350;53.176;8.194;2024-03-08T15:36:25;7.80;99.90
18444;DHT22;9350;53.176;8.194;2024-03-08T15:38:56;7.80;99.90
18444;DHT22;9350;53.176;8.194;2024-03-08T15:41:23;7.80;99.90
18444;DHT22;9350;53.176;8.194;2024-03-08T15:43:52;7.70;99.90
18444;DHT22;9350;53.176;8.194;2024-03-08T15:46:22;7.70;99.90
18444;DHT22;9350;53.176;8.194;2024-03-08T15:48:49;7.70;99.90
18444;DHT22;9350;53.176;8.194;2024-03-08T15:51:17;7.80;99.90
18444;DHT22;9350;53.176;8.194;2024-03-08T15:53:44;7.70;99.90
18444;DHT22;9350;53.176;8.194;2024-03-08T15:56:18;7.80;99.90
18444;DHT22;9350;53.176;8.194;2024-03-08T15:58:45;7.70;99.90
18444;DHT22;9350;53.176;8.194;2024-03-08T16:01:12;7.60;99.90
18444;DHT22;9350;53.176;8.194;2024-03-08T16:03:43;7.70;99.90
18444;DHT22;9350;53.176;8.194;2024-03-08T16:06:10;7.60;99.90
18444;DHT22;9350;53.176;8.194;2024-03-08T16:08:37;7.60;99.90